SAWH/USH METAR and TAF weather

Enter ICAO airport designator
Station Type Date Time Source
SAWH METAR 2019/08/24 07:00 UTC NOAA

SAWH 240700Z 14007KT 9999 SCT035 BKN060 05/02 Q0999


Station Type Date Time Source
SAWH Decoded METAR 2019/08/24 07:00 UTC NOAA

Station name not available
Aug 24, 2019 - 03:00 AM EDT / 2019.08.24 0700 UTC
Wind: from the SE (140 degrees) at 8 MPH (7 KT):0
Visibility: greater than 7 mile(s):0
Sky conditions: mostly cloudy
Temperature: 41 F (5 C)
Dew Point: 35 F (2 C)
Relative Humidity: 80%
Pressure (altimeter): 29.50 in. Hg (0999 hPa)
ob: SAWH 240700Z 14007KT 9999 SCT035 BKN060 05/02 Q0999
cycle: 7

Station Type Date Time Source
SAWH TAF 2019/08/24 06:55 UTC NOAA

TAF SAWH 240500Z 2406/2506 VRB03KT 9999 SCT035 OVC060 TX07/2418Z TN03/2411Z
TEMPO 2406/2410 -SHRA BKN030 OVC060
BECMG 2410/2412 36010KT 9999 NSW SCT030 BKN040
BECMG 2419/2421 VRB03KT CAVOK

Example: see airport list